Time;durP1;ratioP1;P1;durP2;ratioP2;P2;SDS_P1;SDS_P2;PMS_P1;PMS_P2;Temp;Humidity;BMP_temperature;BMP_pressure;BME280_temperature;BME280_humidity;BME280_pressure;Samples;Min_cycle;Max_cycle;Signal;HPM_P1;HPM_P2
2020/12/05 00:01:28;;;;;;;6.27;4.57;;;;;;;;;;5042628;28;20184;-71
2020/12/05 00:03:53;;;;;;;8.87;4.60;;;;;;;;;;5041409;28;20182;-70
2020/12/05 00:06:22;;;;;;;8.43;5.37;;;;;;;;;;5039640;28;20189;-71
2020/12/05 00:08:48;;;;;;;8.10;5.30;;;;;;;;;;5041414;28;20249;-71
2020/12/05 00:11:13;;;;;;;6.43;5.37;;;;;;;;;;5044402;28;20203;-71
2020/12/05 00:13:39;;;;;;;7.73;5.37;;;;;;;;;;5044531;28;20772;-71
2020/12/05 00:16:04;;;;;;;12.23;5.37;;;;;;;;;;5040030;28;20186;-70
2020/12/05 00:18:29;;;;;;;7.67;5.40;;;;;;;;;;5043914;28;20213;-71
2020/12/05 00:20:54;;;;;;;8.93;5.53;;;;;;;;;;5040733;28;20216;-70
2020/12/05 00:23:19;;;;;;;12.13;6.00;;;;;;;;;;5040473;28;20202;-71
2020/12/05 00:25:45;;;;;;;7.17;5.10;;;;;;;;;;5042609;28;20545;-71
2020/12/05 00:28:10;;;;;;;8.13;5.47;;;;;;;;;;5042125;28;20526;-71
2020/12/05 00:30:35;;;;;;;9.60;5.07;;;;;;;;;;5042856;28;20178;-71
2020/12/05 00:33:01;;;;;;;9.60;6.10;;;;;;;;;;5047986;28;20683;-72
2020/12/05 00:35:26;;;;;;;8.20;5.77;;;;;;;;;;5041004;28;20209;-72
2020/12/05 00:37:52;;;;;;;11.20;6.30;;;;;;;;;;5042034;28;20225;-72
2020/12/05 00:40:17;;;;;;;7.10;4.90;;;;;;;;;;5044631;28;20174;-72
2020/12/05 00:42:42;;;;;;;7.17;5.53;;;;;;;;;;5038340;28;20193;-72
2020/12/05 00:45:07;;;;;;;9.63;6.00;;;;;;;;;;5048166;28;20707;-71
2020/12/05 00:47:32;;;;;;;6.03;4.97;;;;;;;;;;5046117;28;20174;-72
2020/12/05 00:49:57;;;;;;;6.73;5.70;;;;;;;;;;5041158;28;20670;-72
2020/12/05 00:52:23;;;;;;;9.10;5.67;;;;;;;;;;5040118;28;21136;-72
2020/12/05 00:54:49;;;;;;;8.60;5.50;;;;;;;;;;5043029;28;20266;-73
2020/12/05 00:57:14;;;;;;;6.27;5.23;;;;;;;;;;5046404;28;20240;-72
2020/12/05 00:59:39;;;;;;;6.80;5.43;;;;;;;;;;5048975;28;20621;-71
2020/12/05 01:02:05;;;;;;;7.47;6.07;;;;;;;;;;5047056;28;20204;-72
2020/12/05 01:04:30;;;;;;;7.70;5.93;;;;;;;;;;5045633;28;20178;-72
2020/12/05 01:06:55;;;;;;;6.80;5.30;;;;;;;;;;5036675;28;20198;-72
2020/12/05 01:09:20;;;;;;;10.33;5.90;;;;;;;;;;5045885;28;20207;-72
2020/12/05 01:11:46;;;;;;;8.27;5.93;;;;;;;;;;5046007;28;20197;-72
2020/12/05 01:14:12;;;;;;;10.83;5.63;;;;;;;;;;5044103;28;20189;-72
2020/12/05 01:16:37;;;;;;;7.87;5.47;;;;;;;;;;5042457;28;20208;-72
2020/12/05 01:19:02;;;;;;;9.80;5.90;;;;;;;;;;5034599;28;20181;-72
2020/12/05 01:21:27;;;;;;;10.50;5.73;;;;;;;;;;5036802;28;20227;-72
2020/12/05 01:23:52;;;;;;;9.03;5.90;;;;;;;;;;5040428;28;20240;-72
2020/12/05 01:26:21;;;;;;;9.00;5.27;;;;;;;;;;5042831;28;20181;-72
2020/12/05 01:28:46;;;;;;;8.23;6.13;;;;;;;;;;5036373;28;20186;-72
2020/12/05 01:31:11;;;;;;;6.63;5.70;;;;;;;;;;5038753;28;20226;-72
2020/12/05 01:33:37;;;;;;;7.20;4.83;;;;;;;;;;5039811;28;20206;-71
2020/12/05 01:36:03;;;;;;;7.73;5.90;;;;;;;;;;5038996;28;20648;-72
2020/12/05 01:38:28;;;;;;;16.33;5.47;;;;;;;;;;5040463;28;20222;-72
2020/12/05 01:40:57;;;;;;;7.83;5.70;;;;;;;;;;5039903;28;20178;-72
2020/12/05 01:43:23;;;;;;;10.47;5.13;;;;;;;;;;5042086;28;20243;-72
2020/12/05 01:45:48;;;;;;;7.93;6.43;;;;;;;;;;5049036;28;20182;-72
2020/12/05 01:48:14;;;;;;;6.67;5.60;;;;;;;;;;5045168;28;20282;-72
2020/12/05 01:50:39;;;;;;;9.53;5.43;;;;;;;;;;5043908;28;20209;-72
2020/12/05 01:53:04;;;;;;;10.23;5.67;;;;;;;;;;5040585;28;20483;-74
2020/12/05 01:55:29;;;;;;;6.33;5.23;;;;;;;;;;5048700;28;20211;-71
2020/12/05 01:57:55;;;;;;;9.03;4.70;;;;;;;;;;5042923;28;20267;-72
2020/12/05 02:00:20;;;;;;;7.87;5.67;;;;;;;;;;5039528;28;20598;-72
2020/12/05 02:02:45;;;;;;;7.70;5.07;;;;;;;;;;5039667;28;20262;-73
2020/12/05 02:05:20;;;;;;;8.40;5.33;;;;;;;;;;5040385;28;20181;-71
2020/12/05 02:07:53;;;;;;;8.33;5.43;;;;;;;;;;5040178;28;20647;-71
2020/12/05 02:10:27;;;;;;;6.43;4.93;;;;;;;;;;5039606;28;20757;-72
2020/12/05 02:13:09;;;;;;;7.53;5.23;;;;;;;;;;5036401;28;20244;-72
2020/12/05 02:15:37;;;;;;;7.80;4.80;;;;;;;;;;5036014;28;20185;-72
2020/12/05 02:18:04;;;;;;;6.90;5.33;;;;;;;;;;5034202;28;20210;-72
2020/12/05 02:20:31;;;;;;;6.40;5.27;;;;;;;;;;5037576;28;20181;-72
2020/12/05 02:23:04;;;;;;;6.53;4.97;;;;;;;;;;5039559;28;20307;-72
2020/12/05 02:25:30;;;;;;;7.37;5.70;;;;;;;;;;5036648;28;20611;-71
2020/12/05 02:27:55;;;;;;;9.93;5.43;;;;;;;;;;5035675;28;20179;-72
2020/12/05 02:30:20;;;;;;;7.17;5.00;;;;;;;;;;5034929;28;20201;-71
2020/12/05 02:32:46;;;;;;;8.60;4.90;;;;;;;;;;5039714;28;20614;-72
2020/12/05 02:35:11;;;;;;;10.10;5.63;;;;;;;;;;5036741;28;20182;-72
2020/12/05 02:37:39;;;;;;;8.27;5.50;;;;;;;;;;5034317;28;20190;-72
2020/12/05 02:40:05;;;;;;;7.27;5.47;;;;;;;;;;5037492;28;20192;-71
2020/12/05 02:42:30;;;;;;;5.83;5.20;;;;;;;;;;5040743;28;20201;-72
2020/12/05 02:44:55;;;;;;;5.83;4.40;;;;;;;;;;5039759;28;20220;-71
2020/12/05 02:47:21;;;;;;;9.23;4.93;;;;;;;;;;5040837;28;20307;-72
2020/12/05 02:49:46;;;;;;;7.57;5.03;;;;;;;;;;5036047;28;20170;-72
2020/12/05 02:52:12;;;;;;;8.67;5.37;;;;;;;;;;5036174;28;20292;-72
2020/12/05 02:54:37;;;;;;;8.20;4.93;;;;;;;;;;5035264;28;20195;-71
2020/12/05 02:57:03;;;;;;;8.33;5.17;;;;;;;;;;5040245;28;20197;-72
2020/12/05 02:59:29;;;;;;;14.13;6.63;;;;;;;;;;5040246;28;20174;-71
2020/12/05 03:01:55;;;;;;;6.10;5.00;;;;;;;;;;5044473;28;20267;-72
2020/12/05 03:04:20;;;;;;;6.73;4.73;;;;;;;;;;5040191;28;20171;-72
2020/12/05 03:06:45;;;;;;;10.23;5.20;;;;;;;;;;5044364;28;20297;-72
2020/12/05 03:09:10;;;;;;;8.43;5.23;;;;;;;;;;5041617;28;20186;-72
2020/12/05 03:11:35;;;;;;;14.50;4.57;;;;;;;;;;5040324;28;20185;-72
2020/12/05 03:14:01;;;;;;;7.47;4.63;;;;;;;;;;5044190;28;20244;-71
2020/12/05 03:16:26;;;;;;;8.00;5.23;;;;;;;;;;5038672;28;20233;-72
2020/12/05 03:18:51;;;;;;;6.27;4.67;;;;;;;;;;5043370;28;20181;-72
2020/12/05 03:21:16;;;;;;;7.03;4.43;;;;;;;;;;5041814;28;20181;-72
2020/12/05 03:23:45;;;;;;;8.60;4.80;;;;;;;;;;5047953;28;20206;-72
2020/12/05 03:26:10;;;;;;;7.97;5.37;;;;;;;;;;5040448;28;20184;-71
2020/12/05 03:28:36;;;;;;;6.97;4.77;;;;;;;;;;5040998;28;20182;-72
2020/12/05 03:31:02;;;;;;;6.90;5.20;;;;;;;;;;5047772;28;20204;-72
2020/12/05 03:33:27;;;;;;;7.50;5.20;;;;;;;;;;5049796;28;20202;-72
2020/12/05 03:35:52;;;;;;;10.80;5.83;;;;;;;;;;5037808;28;20631;-72
2020/12/05 03:38:17;;;;;;;13.87;5.50;;;;;;;;;;5045241;28;20198;-71
2020/12/05 03:40:42;;;;;;;7.73;4.73;;;;;;;;;;5047496;28;20559;-71
2020/12/05 03:43:07;;;;;;;11.83;5.40;;;;;;;;;;5051379;28;20194;-70
2020/12/05 03:45:33;;;;;;;9.03;5.60;;;;;;;;;;5048443;28;20615;-71
2020/12/05 03:47:58;;;;;;;7.77;5.40;;;;;;;;;;5043409;28;20652;-71
2020/12/05 03:50:23;;;;;;;8.63;5.50;;;;;;;;;;5050250;28;20185;-71
2020/12/05 03:52:49;;;;;;;8.90;5.43;;;;;;;;;;5047649;28;20193;-70
2020/12/05 03:55:14;;;;;;;7.00;5.53;;;;;;;;;;5049739;28;20654;-71
2020/12/05 03:57:39;;;;;;;8.30;5.07;;;;;;;;;;5050485;28;20202;-71
2020/12/05 04:00:04;;;;;;;10.60;5.70;;;;;;;;;;5051254;28;20616;-71
2020/12/05 04:02:29;;;;;;;8.97;5.67;;;;;;;;;;5046887;28;20205;-71
2020/12/05 04:04:55;;;;;;;9.83;6.60;;;;;;;;;;5051126;28;20696;-70
2020/12/05 04:07:20;;;;;;;7.63;5.70;;;;;;;;;;5047359;28;20387;-71
2020/12/05 04:09:45;;;;;;;7.67;6.17;;;;;;;;;;5047100;28;20185;-70
2020/12/05 04:12:10;;;;;;;9.17;5.70;;;;;;;;;;5047871;28;20869;-71
2020/12/05 04:14:35;;;;;;;10.83;5.73;;;;;;;;;;5049226;28;20716;-70
2020/12/05 04:17:01;;;;;;;12.60;6.23;;;;;;;;;;5049756;28;20210;-71
2020/12/05 04:19:26;;;;;;;8.87;6.27;;;;;;;;;;5040415;28;20204;-73
2020/12/05 04:21:51;;;;;;;12.50;6.10;;;;;;;;;;5045837;28;20323;-70
2020/12/05 04:24:17;;;;;;;10.67;6.43;;;;;;;;;;5045971;28;20193;-71
2020/12/05 04:26:42;;;;;;;8.40;6.13;;;;;;;;;;5042511;28;20235;-71
2020/12/05 04:29:07;;;;;;;8.77;5.40;;;;;;;;;;5036521;28;20194;-70
2020/12/05 04:31:32;;;;;;;11.80;6.07;;;;;;;;;;5042518;28;20260;-71
2020/12/05 04:33:57;;;;;;;6.53;5.40;;;;;;;;;;5046264;28;20181;-71
2020/12/05 04:36:22;;;;;;;8.93;6.30;;;;;;;;;;5038677;28;20185;-71
2020/12/05 04:38:47;;;;;;;7.77;5.70;;;;;;;;;;5043936;28;20715;-71
2020/12/05 04:41:13;;;;;;;10.90;6.27;;;;;;;;;;5047409;28;20169;-71
2020/12/05 04:43:38;;;;;;;8.63;5.77;;;;;;;;;;5040283;28;20721;-71
2020/12/05 04:46:03;;;;;;;9.50;5.50;;;;;;;;;;5045269;28;20201;-70
2020/12/05 04:48:30;;;;;;;8.93;5.77;;;;;;;;;;5044677;28;20181;-70
2020/12/05 04:50:59;;;;;;;9.70;6.60;;;;;;;;;;5045568;28;20252;-71
2020/12/05 04:53:24;;;;;;;8.27;6.07;;;;;;;;;;5043275;28;20689;-70
2020/12/05 04:55:52;;;;;;;14.37;6.10;;;;;;;;;;5042816;28;20179;-71
2020/12/05 04:58:18;;;;;;;9.07;5.87;;;;;;;;;;5044961;28;20201;-71
2020/12/05 05:00:44;;;;;;;10.83;6.43;;;;;;;;;;5033318;28;20209;-70
2020/12/05 05:03:10;;;;;;;10.40;6.30;;;;;;;;;;5040461;28;20195;-71
2020/12/05 05:05:35;;;;;;;10.97;7.10;;;;;;;;;;5045908;28;20181;-71
2020/12/05 05:08:00;;;;;;;9.10;6.77;;;;;;;;;;5046623;28;20173;-71
2020/12/05 05:10:32;;;;;;;7.90;6.07;;;;;;;;;;5042027;28;20177;-70
2020/12/05 05:13:29;;;;;;;10.37;6.23;;;;;;;;;;5040715;28;20303;-71
2020/12/05 05:15:54;;;;;;;8.60;5.33;;;;;;;;;;5041581;28;20188;-70
2020/12/05 05:18:23;;;;;;;10.57;6.83;;;;;;;;;;5037199;28;20206;-71
2020/12/05 05:20:48;;;;;;;9.50;6.47;;;;;;;;;;5048694;28;20174;-71
2020/12/05 05:23:14;;;;;;;12.47;6.93;;;;;;;;;;5046365;28;20198;-73
2020/12/05 05:25:53;;;;;;;9.07;5.90;;;;;;;;;;5040400;28;20212;-71
2020/12/05 05:28:27;;;;;;;19.00;6.50;;;;;;;;;;5040064;28;20189;-72
2020/12/05 05:33:47;;;;;;;10.97;7.27;;;;;;;;;;5039378;28;20678;-72
2020/12/05 05:36:16;;;;;;;11.17;7.37;;;;;;;;;;5040541;28;20188;-71
2020/12/05 05:38:42;;;;;;;8.67;6.67;;;;;;;;;;5036302;28;20290;-72
2020/12/05 05:41:11;;;;;;;8.47;7.07;;;;;;;;;;5048009;28;20185;-72
2020/12/05 05:43:36;;;;;;;10.40;7.30;;;;;;;;;;5042882;28;20229;-72
2020/12/05 05:46:01;;;;;;;10.53;7.20;;;;;;;;;;5048303;28;20270;-72
2020/12/05 05:48:27;;;;;;;8.47;6.87;;;;;;;;;;5045724;28;20181;-72
2020/12/05 05:50:52;;;;;;;11.67;7.57;;;;;;;;;;5046250;28;20193;-73
2020/12/05 05:53:21;;;;;;;15.93;8.70;;;;;;;;;;5047802;28;20201;-72
2020/12/05 05:55:50;;;;;;;10.80;7.30;;;;;;;;;;5041816;28;20265;-72
2020/12/05 05:58:19;;;;;;;15.43;8.90;;;;;;;;;;5035521;28;20212;-72
2020/12/05 06:00:45;;;;;;;10.87;8.47;;;;;;;;;;5044163;28;20178;-72
2020/12/05 06:03:23;;;;;;;17.90;8.73;;;;;;;;;;5039385;28;20570;-72
2020/12/05 06:05:50;;;;;;;13.10;9.00;;;;;;;;;;5039014;28;20178;-72
2020/12/05 06:08:16;;;;;;;13.70;7.83;;;;;;;;;;5046524;28;20182;-72
2020/12/05 06:10:42;;;;;;;13.53;9.13;;;;;;;;;;5036686;28;20287;-72
2020/12/05 06:13:08;;;;;;;10.93;8.27;;;;;;;;;;5048160;28;20212;-72
2020/12/05 06:15:34;;;;;;;14.77;9.17;;;;;;;;;;5042839;28;20170;-72
2020/12/05 06:17:59;;;;;;;14.37;9.07;;;;;;;;;;5042300;28;20206;-71
2020/12/05 06:20:27;;;;;;;16.23;9.50;;;;;;;;;;5036976;28;20635;-72
2020/12/05 06:22:57;;;;;;;15.80;9.70;;;;;;;;;;5040960;28;20615;-71
2020/12/05 06:25:23;;;;;;;13.87;9.43;;;;;;;;;;5040495;28;20198;-75
2020/12/05 06:27:56;;;;;;;17.50;9.83;;;;;;;;;;5046666;28;20311;-72
2020/12/05 06:30:21;;;;;;;15.80;9.30;;;;;;;;;;5039602;28;20197;-72
2020/12/05 06:32:47;;;;;;;11.53;9.87;;;;;;;;;;5042515;28;20233;-72
2020/12/05 06:35:18;;;;;;;17.83;9.97;;;;;;;;;;5044470;28;20227;-72
2020/12/05 06:37:43;;;;;;;15.80;9.83;;;;;;;;;;5040847;28;20647;-72
2020/12/05 06:40:08;;;;;;;13.67;9.20;;;;;;;;;;5047592;28;20206;-72
2020/12/05 06:42:41;;;;;;;17.03;9.63;;;;;;;;;;5048591;28;20186;-72
2020/12/05 06:45:07;;;;;;;11.80;9.00;;;;;;;;;;5044764;28;20189;-72
2020/12/05 06:47:32;;;;;;;15.17;9.90;;;;;;;;;;5045190;28;20185;-72
2020/12/05 06:49:57;;;;;;;15.33;9.90;;;;;;;;;;5041850;28;20193;-72
2020/12/05 06:52:25;;;;;;;15.57;9.47;;;;;;;;;;5046625;28;20292;-72
2020/12/05 06:54:50;;;;;;;15.63;8.90;;;;;;;;;;5039458;28;20277;-72
2020/12/05 06:57:16;;;;;;;13.88;9.52;;;;;;;;;;5045767;28;20347;-73
2020/12/05 06:59:41;;;;;;;12.43;9.07;;;;;;;;;;5051796;28;20185;-72
2020/12/05 07:02:25;;;;;;;14.50;9.43;;;;;;;;;;5041738;28;20201;-72
2020/12/05 07:04:50;;;;;;;15.73;10.27;;;;;;;;;;5042647;28;20170;-72
2020/12/05 07:07:31;;;;;;;13.50;9.30;;;;;;;;;;5044116;28;20261;-72
2020/12/05 07:09:56;;;;;;;17.60;10.60;;;;;;;;;;5044257;28;20178;-72
2020/12/05 07:12:21;;;;;;;13.43;10.30;;;;;;;;;;5039361;28;20217;-72
2020/12/05 07:14:46;;;;;;;12.63;9.37;;;;;;;;;;5045196;28;20181;-72
2020/12/05 07:17:19;;;;;;;15.70;10.17;;;;;;;;;;5045475;28;20280;-72
2020/12/05 07:19:45;;;;;;;12.70;9.93;;;;;;;;;;5052191;28;20170;-72
2020/12/05 07:22:10;;;;;;;13.87;10.03;;;;;;;;;;5053415;28;20247;-72
2020/12/05 07:24:35;;;;;;;13.47;10.13;;;;;;;;;;5047555;28;20205;-72
2020/12/05 07:27:00;;;;;;;14.30;10.27;;;;;;;;;;5044965;28;20183;-72
2020/12/05 07:29:25;;;;;;;14.60;10.33;;;;;;;;;;5045905;28;20269;-72
2020/12/05 07:31:50;;;;;;;13.03;9.50;;;;;;;;;;5049769;28;20213;-72
2020/12/05 07:34:19;;;;;;;12.40;10.60;;;;;;;;;;5047817;28;20208;-72
2020/12/05 07:36:44;;;;;;;13.60;10.93;;;;;;;;;;5050480;28;20691;-72
2020/12/05 07:39:09;;;;;;;17.10;10.07;;;;;;;;;;5046942;28;20268;-72
2020/12/05 07:41:35;;;;;;;17.17;11.10;;;;;;;;;;5041192;28;20264;-72
2020/12/05 07:44:00;;;;;;;16.03;10.70;;;;;;;;;;5047735;28;20556;-72
2020/12/05 07:46:28;;;;;;;15.70;10.60;;;;;;;;;;5050466;28;20201;-73
2020/12/05 07:48:53;;;;;;;15.97;10.90;;;;;;;;;;5049784;28;20177;-72
2020/12/05 07:51:18;;;;;;;13.73;10.53;;;;;;;;;;5046714;28;20174;-72
2020/12/05 07:53:44;;;;;;;16.67;11.17;;;;;;;;;;5044620;28;20193;-72
2020/12/05 07:56:13;;;;;;;13.47;9.93;;;;;;;;;;5048199;28;20548;-72
2020/12/05 07:58:45;;;;;;;14.90;11.30;;;;;;;;;;5048539;28;20205;-73
2020/12/05 08:01:15;;;;;;;16.70;11.53;;;;;;;;;;5041660;28;20259;-72
2020/12/05 08:03:59;;;;;;;18.00;10.87;;;;;;;;;;5048094;28;20672;-72
2020/12/05 08:06:27;;;;;;;17.33;10.80;;;;;;;;;;5051905;28;20173;-72
2020/12/05 08:08:56;;;;;;;16.20;11.27;;;;;;;;;;5037491;28;20218;-73
2020/12/05 08:11:21;;;;;;;15.70;11.67;;;;;;;;;;5050840;28;20643;-71
2020/12/05 08:13:47;;;;;;;16.33;12.13;;;;;;;;;;5041932;28;20210;-72
2020/12/05 08:16:13;;;;;;;20.37;12.57;;;;;;;;;;5045658;28;20566;-71
2020/12/05 08:18:40;;;;;;;16.97;12.00;;;;;;;;;;5039322;28;20206;-72
2020/12/05 08:21:06;;;;;;;19.53;13.47;;;;;;;;;;5044488;28;20196;-72
2020/12/05 08:23:37;;;;;;;17.07;11.90;;;;;;;;;;5043341;28;20280;-72
2020/12/05 08:26:03;;;;;;;17.90;11.90;;;;;;;;;;5051231;28;20186;-72
2020/12/05 08:28:30;;;;;;;20.47;11.53;;;;;;;;;;5045554;28;20705;-72
2020/12/05 08:30:55;;;;;;;15.17;11.80;;;;;;;;;;5042383;28;20186;-71
2020/12/05 08:33:20;;;;;;;16.10;11.47;;;;;;;;;;5044580;28;20224;-72
2020/12/05 08:35:45;;;;;;;15.10;11.53;;;;;;;;;;5046427;28;20178;-74
2020/12/05 08:38:13;;;;;;;19.87;11.50;;;;;;;;;;5039864;28;20293;-73
2020/12/05 08:40:38;;;;;;;15.90;11.57;;;;;;;;;;5047994;28;20212;-73
2020/12/05 08:43:04;;;;;;;18.73;11.43;;;;;;;;;;5037006;28;20225;-72
2020/12/05 08:45:29;;;;;;;14.87;11.77;;;;;;;;;;5045792;28;20178;-72
2020/12/05 08:47:55;;;;;;;14.57;11.07;;;;;;;;;;5035076;28;20230;-72
2020/12/05 08:50:21;;;;;;;14.67;10.13;;;;;;;;;;5044495;28;20182;-72
2020/12/05 08:52:47;;;;;;;15.23;11.07;;;;;;;;;;5038525;28;20247;-72
2020/12/05 08:55:19;;;;;;;17.37;11.77;;;;;;;;;;5038661;28;20188;-72
2020/12/05 08:57:51;;;;;;;15.80;11.20;;;;;;;;;;5042688;28;20215;-72
2020/12/05 09:00:18;;;;;;;14.07;11.00;;;;;;;;;;5038627;28;20239;-72
2020/12/05 09:02:44;;;;;;;16.00;10.77;;;;;;;;;;5044762;28;20224;-72
2020/12/05 09:05:09;;;;;;;16.63;12.10;;;;;;;;;;5036978;28;20178;-73
2020/12/05 09:07:34;;;;;;;15.27;11.77;;;;;;;;;;5050261;28;20633;-72
2020/12/05 09:09:59;;;;;;;18.87;12.03;;;;;;;;;;5048595;28;20256;-72
2020/12/05 09:12:31;;;;;;;15.67;11.63;;;;;;;;;;5048332;28;20217;-72
2020/12/05 09:15:04;;;;;;;15.20;12.37;;;;;;;;;;5034505;28;20178;-72
2020/12/05 09:17:34;;;;;;;13.47;10.97;;;;;;;;;;5046074;28;20193;-72
2020/12/05 09:20:14;;;;;;;14.37;11.07;;;;;;;;;;5037412;28;20247;-72
2020/12/05 09:22:45;;;;;;;13.30;10.43;;;;;;;;;;5043486;28;20820;-73
2020/12/05 09:25:10;;;;;;;12.00;10.10;;;;;;;;;;5040762;28;20240;-72
2020/12/05 09:27:35;;;;;;;14.17;9.57;;;;;;;;;;5046530;28;20178;-73
2020/12/05 09:30:01;;;;;;;9.33;8.20;;;;;;;;;;5042148;28;20273;-72
2020/12/05 09:32:42;;;;;;;9.90;7.90;;;;;;;;;;5046979;28;20616;-73
2020/12/05 09:35:08;;;;;;;7.73;6.97;;;;;;;;;;5040697;28;20627;-73
2020/12/05 09:37:33;;;;;;;9.07;6.93;;;;;;;;;;5046472;28;20327;-73
2020/12/05 09:39:58;;;;;;;7.00;6.33;;;;;;;;;;5044692;28;20200;-73
2020/12/05 09:42:24;;;;;;;6.70;6.07;;;;;;;;;;5043299;28;20251;-73
2020/12/05 09:44:49;;;;;;;6.87;6.27;;;;;;;;;;5042873;28;20180;-73
2020/12/05 09:47:15;;;;;;;6.37;5.77;;;;;;;;;;5047032;28;20185;-73
2020/12/05 09:49:40;;;;;;;7.50;6.70;;;;;;;;;;5044291;28;20258;-73
2020/12/05 09:52:05;;;;;;;6.80;6.10;;;;;;;;;;5046519;28;20224;-74
2020/12/05 09:54:30;;;;;;;5.97;5.37;;;;;;;;;;5040694;28;20201;-73
2020/12/05 09:56:55;;;;;;;6.93;5.73;;;;;;;;;;5039528;28;20250;-73
2020/12/05 09:59:21;;;;;;;6.87;5.63;;;;;;;;;;5044535;28;20181;-73
2020/12/05 10:01:46;;;;;;;6.70;5.53;;;;;;;;;;5046900;28;20258;-73
2020/12/05 10:04:14;;;;;;;6.47;5.87;;;;;;;;;;5035982;28;20252;-73
2020/12/05 10:06:39;;;;;;;6.47;5.00;;;;;;;;;;5046099;28;20177;-73
2020/12/05 10:09:04;;;;;;;7.47;5.07;;;;;;;;;;5047780;28;20292;-73
2020/12/05 10:11:29;;;;;;;6.47;5.87;;;;;;;;;;5050684;28;20643;-73
2020/12/05 10:13:54;;;;;;;5.50;5.00;;;;;;;;;;5044828;28;20189;-73
2020/12/05 10:16:20;;;;;;;4.93;4.43;;;;;;;;;;5044982;28;20173;-73
2020/12/05 10:18:45;;;;;;;5.47;4.90;;;;;;;;;;5041960;28;20758;-73
2020/12/05 10:21:10;;;;;;;7.47;5.70;;;;;;;;;;5049522;28;20185;-73
2020/12/05 10:23:35;;;;;;;6.97;5.10;;;;;;;;;;5047609;28;20198;-73
2020/12/05 10:26:00;;;;;;;5.97;5.37;;;;;;;;;;5045383;28;20260;-73
2020/12/05 10:28:26;;;;;;;6.13;5.07;;;;;;;;;;5048442;28;20185;-73
2020/12/05 10:30:51;;;;;;;6.13;5.53;;;;;;;;;;5049158;28;20646;-73
2020/12/05 10:33:16;;;;;;;5.90;5.30;;;;;;;;;;5050714;28;20226;-73
2020/12/05 10:35:41;;;;;;;5.90;4.87;;;;;;;;;;5051656;28;20615;-73
2020/12/05 10:38:06;;;;;;;5.73;5.13;;;;;;;;;;5049951;28;20343;-73
2020/12/05 10:40:32;;;;;;;8.17;5.70;;;;;;;;;;5048539;28;20170;-74
2020/12/05 10:42:57;;;;;;;6.50;5.90;;;;;;;;;;5046839;28;20263;-73
2020/12/05 10:45:22;;;;;;;6.53;5.77;;;;;;;;;;5046156;28;20418;-73
2020/12/05 10:47:47;;;;;;;6.67;5.93;;;;;;;;;;5042833;28;20216;-73
2020/12/05 10:50:12;;;;;;;7.10;5.10;;;;;;;;;;5038636;28;20193;-73
2020/12/05 10:52:37;;;;;;;5.03;4.10;;;;;;;;;;5045669;28;20486;-73
2020/12/05 10:55:03;;;;;;;5.43;4.20;;;;;;;;;;5048259;28;20178;-72
2020/12/05 10:57:28;;;;;;;4.93;4.50;;;;;;;;;;5038645;28;20613;-73
2020/12/05 10:59:54;;;;;;;5.00;4.50;;;;;;;;;;5044832;28;20174;-73
2020/12/05 11:02:19;;;;;;;4.07;3.60;;;;;;;;;;5045306;28;20205;-73
2020/12/05 11:04:45;;;;;;;5.53;3.80;;;;;;;;;;5051270;28;20173;-71
2020/12/05 11:07:10;;;;;;;5.00;3.77;;;;;;;;;;5048756;28;20708;-74
2020/12/05 11:09:35;;;;;;;5.17;3.90;;;;;;;;;;5042255;28;20174;-71
2020/12/05 11:12:00;;;;;;;5.70;3.83;;;;;;;;;;5042198;28;20222;-72
2020/12/05 11:14:25;;;;;;;4.23;3.43;;;;;;;;;;5042517;28;20185;-71
2020/12/05 11:16:51;;;;;;;5.53;3.80;;;;;;;;;;5043375;28;20182;-72
2020/12/05 11:19:16;;;;;;;3.87;3.47;;;;;;;;;;5038650;28;20652;-71
2020/12/05 11:21:45;;;;;;;5.13;4.07;;;;;;;;;;5048764;28;20174;-71
2020/12/05 11:24:10;;;;;;;4.20;3.70;;;;;;;;;;5048515;28;20645;-72
2020/12/05 11:26:35;;;;;;;5.73;3.83;;;;;;;;;;5049674;28;20222;-72
2020/12/05 11:29:01;;;;;;;3.87;3.33;;;;;;;;;;5046432;28;20196;-72
2020/12/05 11:31:26;;;;;;;6.00;3.67;;;;;;;;;;5046661;28;20187;-72
2020/12/05 11:33:51;;;;;;;6.20;3.70;;;;;;;;;;5046068;28;20682;-72
2020/12/05 11:36:16;;;;;;;27.90;4.63;;;;;;;;;;5048777;28;20170;-72
2020/12/05 11:38:41;;;;;;;3.80;3.37;;;;;;;;;;5046849;28;20201;-72
2020/12/05 11:41:07;;;;;;;5.23;3.27;;;;;;;;;;5045283;28;20193;-72
2020/12/05 11:43:32;;;;;;;5.13;3.47;;;;;;;;;;5044253;28;20251;-72
2020/12/05 11:45:57;;;;;;;4.03;2.83;;;;;;;;;;5049603;28;20199;-72
2020/12/05 11:48:22;;;;;;;3.63;3.23;;;;;;;;;;5049459;28;20186;-72
2020/12/05 11:50:48;;;;;;;5.07;3.13;;;;;;;;;;5047366;28;20203;-72
2020/12/05 11:53:13;;;;;;;5.83;3.13;;;;;;;;;;5044251;28;20208;-72
2020/12/05 11:55:38;;;;;;;3.50;3.20;;;;;;;;;;5042840;28;20224;-72
2020/12/05 11:58:03;;;;;;;4.33;2.73;;;;;;;;;;5044248;28;20724;-72
2020/12/05 12:00:28;;;;;;;5.87;3.33;;;;;;;;;;5045710;28;20192;-73
2020/12/05 12:02:54;;;;;;;4.00;3.10;;;;;;;;;;5046203;28;20190;-72
2020/12/05 12:05:19;;;;;;;4.50;3.40;;;;;;;;;;5044030;28;20185;-72
2020/12/05 12:07:44;;;;;;;6.53;3.40;;;;;;;;;;5047858;28;20170;-72
2020/12/05 12:10:10;;;;;;;4.07;2.97;;;;;;;;;;5045235;28;20197;-73
2020/12/05 12:12:35;;;;;;;3.07;2.63;;;;;;;;;;5046065;28;20363;-72
2020/12/05 12:15:00;;;;;;;6.10;3.40;;;;;;;;;;5046724;28;20189;-72
2020/12/05 12:17:25;;;;;;;4.45;3.15;;;;;;;;;;5045895;28;20205;-72
2020/12/05 12:19:51;;;;;;;7.70;2.90;;;;;;;;;;5047816;28;20181;-72
2020/12/05 12:22:16;;;;;;;6.03;3.03;;;;;;;;;;5045900;28;20205;-74
2020/12/05 12:24:41;;;;;;;3.47;3.03;;;;;;;;;;5043761;28;20582;-72
2020/12/05 12:27:07;;;;;;;4.43;2.83;;;;;;;;;;5046821;28;20211;-72
2020/12/05 12:29:32;;;;;;;4.40;3.03;;;;;;;;;;5040661;28;20712;-72
2020/12/05 12:31:57;;;;;;;4.37;3.20;;;;;;;;;;5041754;28;20197;-72
2020/12/05 12:34:22;;;;;;;3.53;2.90;;;;;;;;;;5044901;28;20229;-72
2020/12/05 12:36:49;;;;;;;4.53;3.57;;;;;;;;;;5047685;28;20272;-72
2020/12/05 12:39:14;;;;;;;5.03;2.83;;;;;;;;;;5045677;28;20181;-72
2020/12/05 12:41:40;;;;;;;6.70;3.00;;;;;;;;;;5041239;28;20571;-72
2020/12/05 12:44:05;;;;;;;4.00;2.80;;;;;;;;;;5043365;28;20269;-72
2020/12/05 12:46:32;;;;;;;4.50;2.67;;;;;;;;;;5046929;28;20665;-72
2020/12/05 12:48:57;;;;;;;3.33;2.50;;;;;;;;;;5048759;28;20598;-72
2020/12/05 12:51:23;;;;;;;6.77;3.83;;;;;;;;;;5043926;28;20276;-72
2020/12/05 12:53:48;;;;;;;2.80;2.30;;;;;;;;;;5047218;28;20222;-72
2020/12/05 12:56:15;;;;;;;4.23;2.33;;;;;;;;;;5043631;28;20261;-72
2020/12/05 12:58:45;;;;;;;3.67;2.77;;;;;;;;;;5040117;28;20293;-73
2020/12/05 13:01:10;;;;;;;4.13;2.77;;;;;;;;;;5038635;28;20179;-73
2020/12/05 13:03:35;;;;;;;5.27;2.37;;;;;;;;;;5038792;28;20205;-73
2020/12/05 13:06:00;;;;;;;2.60;2.40;;;;;;;;;;5045311;28;20213;-73
2020/12/05 13:08:25;;;;;;;2.87;2.27;;;;;;;;;;5046743;28;20649;-73
2020/12/05 13:10:50;;;;;;;4.10;2.53;;;;;;;;;;5044407;28;20184;-73
2020/12/05 13:13:16;;;;;;;4.47;2.87;;;;;;;;;;5043469;28;20679;-73
2020/12/05 13:15:41;;;;;;;3.47;2.47;;;;;;;;;;5046343;28;20177;-73
2020/12/05 13:18:06;;;;;;;4.07;3.77;;;;;;;;;;5045889;28;20236;-73
2020/12/05 13:20:32;;;;;;;4.87;2.70;;;;;;;;;;5047461;28;20292;-74
2020/12/05 13:22:57;;;;;;;7.07;2.77;;;;;;;;;;5048023;28;20293;-73
2020/12/05 13:25:23;;;;;;;3.40;3.10;;;;;;;;;;5045625;28;20187;-73
2020/12/05 13:27:48;;;;;;;3.27;2.60;;;;;;;;;;5046688;28;20186;-73
2020/12/05 13:30:13;;;;;;;6.03;2.80;;;;;;;;;;5044592;28;20663;-73
2020/12/05 13:32:38;;;;;;;3.63;2.90;;;;;;;;;;5040284;28;20244;-73
2020/12/05 13:35:04;;;;;;;3.03;2.70;;;;;;;;;;5046696;28;20543;-72
2020/12/05 13:37:29;;;;;;;4.50;3.90;;;;;;;;;;5040117;28;20296;-72
2020/12/05 13:39:54;;;;;;;5.20;3.47;;;;;;;;;;5038406;28;20774;-73
2020/12/05 13:42:19;;;;;;;3.27;2.50;;;;;;;;;;5040313;28;20272;-73
2020/12/05 13:44:44;;;;;;;3.77;2.87;;;;;;;;;;5044422;28;20333;-73
2020/12/05 13:47:10;;;;;;;4.83;2.70;;;;;;;;;;5040539;28;20247;-73
2020/12/05 13:49:35;;;;;;;5.80;2.73;;;;;;;;;;5041814;28;20196;-73
2020/12/05 13:52:01;;;;;;;2.73;2.43;;;;;;;;;;5032328;28;20631;-73
2020/12/05 13:54:26;;;;;;;2.87;2.47;;;;;;;;;;5038396;28;20244;-73
2020/12/05 13:56:51;;;;;;;3.53;2.63;;;;;;;;;;5042747;28;20193;-73
2020/12/05 13:59:17;;;;;;;3.33;2.63;;;;;;;;;;5039565;28;20561;-73
2020/12/05 14:01:42;;;;;;;3.97;2.70;;;;;;;;;;5036177;28;20648;-72
2020/12/05 14:04:07;;;;;;;3.00;2.57;;;;;;;;;;5041187;28;20166;-73
2020/12/05 14:06:32;;;;;;;4.37;2.70;;;;;;;;;;5041853;28;20185;-73
2020/12/05 14:08:57;;;;;;;3.27;2.27;;;;;;;;;;5042520;28;20174;-73
2020/12/05 14:11:22;;;;;;;3.75;2.35;;;;;;;;;;5041745;28;20189;-73
2020/12/05 14:13:48;;;;;;;2.10;1.90;;;;;;;;;;5040691;28;20212;-73
2020/12/05 14:16:13;;;;;;;4.03;2.40;;;;;;;;;;5049058;28;20229;-73
2020/12/05 14:18:39;;;;;;;3.63;2.40;;;;;;;;;;5050435;28;20201;-73
2020/12/05 14:21:04;;;;;;;3.90;3.17;;;;;;;;;;5047436;28;20264;-73
2020/12/05 14:23:29;;;;;;;5.70;3.50;;;;;;;;;;5047577;28;20200;-72
2020/12/05 14:25:54;;;;;;;10.27;6.83;;;;;;;;;;5049493;28;20658;-73
2020/12/05 14:28:19;;;;;;;14.80;13.33;;;;;;;;;;5047460;28;20186;-72
2020/12/05 14:30:45;;;;;;;19.23;17.13;;;;;;;;;;5046281;28;20225;-72
2020/12/05 14:33:16;;;;;;;19.17;17.13;;;;;;;;;;5047857;28;20232;-75